sensor_id;sensor_type;location;lat;lon;timestamp;P1;durP1;ratioP1;P2;durP2;ratioP2
72404;SDS011;60395;52.020;113.548;2023-04-24T00:01:23;2.78;;;1.80;;
72404;SDS011;60395;52.020;113.548;2023-04-24T00:04:26;4.47;;;1.60;;
72404;SDS011;60395;52.020;113.548;2023-04-24T00:07:29;4.32;;;1.70;;
72404;SDS011;60395;52.020;113.548;2023-04-24T00:10:33;5.80;;;1.85;;
72404;SDS011;60395;52.020;113.548;2023-04-24T00:13:36;5.18;;;1.70;;
72404;SDS011;60395;52.020;113.548;2023-04-24T00:16:40;4.85;;;2.08;;
72404;SDS011;60395;52.020;113.548;2023-04-24T00:19:43;6.88;;;1.98;;
72404;SDS011;60395;52.020;113.548;2023-04-24T00:22:46;6.60;;;1.70;;
72404;SDS011;60395;52.020;113.548;2023-04-24T00:25:50;11.45;;;2.20;;
72404;SDS011;60395;52.020;113.548;2023-04-24T00:28:53;7.03;;;2.00;;
72404;SDS011;60395;52.020;113.548;2023-04-24T00:31:56;4.32;;;1.75;;
72404;SDS011;60395;52.020;113.548;2023-04-24T00:34:59;2.97;;;2.10;;
72404;SDS011;60395;52.020;113.548;2023-04-24T00:38:03;7.13;;;2.40;;
72404;SDS011;60395;52.020;113.548;2023-04-24T00:41:06;6.10;;;1.90;;
72404;SDS011;60395;52.020;113.548;2023-04-24T00:44:09;6.28;;;1.90;;
72404;SDS011;60395;52.020;113.548;2023-04-24T00:47:13;5.07;;;1.60;;
72404;SDS011;60395;52.020;113.548;2023-04-24T00:50:17;7.47;;;1.90;;
72404;SDS011;60395;52.020;113.548;2023-04-24T00:53:22;3.63;;;1.83;;
72404;SDS011;60395;52.020;113.548;2023-04-24T00:56:25;2.05;;;1.58;;
72404;SDS011;60395;52.020;113.548;2023-04-24T00:59:29;2.78;;;1.58;;
72404;SDS011;60395;52.020;113.548;2023-04-24T01:02:33;5.07;;;1.70;;
72404;SDS011;60395;52.020;113.548;2023-04-24T01:05:37;2.63;;;1.50;;
72404;SDS011;60395;52.020;113.548;2023-04-24T01:08:40;2.65;;;1.70;;
72404;SDS011;60395;52.020;113.548;2023-04-24T01:11:44;5.65;;;1.80;;
72404;SDS011;60395;52.020;113.548;2023-04-24T01:14:47;4.90;;;1.77;;
72404;SDS011;60395;52.020;113.548;2023-04-24T01:17:50;1.88;;;1.42;;
72404;SDS011;60395;52.020;113.548;2023-04-24T01:20:58;6.93;;;1.90;;
72404;SDS011;60395;52.020;113.548;2023-04-24T01:24:05;4.43;;;1.60;;
72404;SDS011;60395;52.020;113.548;2023-04-24T01:27:10;2.30;;;1.10;;
72404;SDS011;60395;52.020;113.548;2023-04-24T01:30:13;2.92;;;1.42;;
72404;SDS011;60395;52.020;113.548;2023-04-24T01:33:17;2.80;;;1.80;;
72404;SDS011;60395;52.020;113.548;2023-04-24T01:36:20;5.97;;;1.73;;
72404;SDS011;60395;52.020;113.548;2023-04-24T01:39:27;5.90;;;1.48;;
72404;SDS011;60395;52.020;113.548;2023-04-24T01:42:31;7.43;;;2.30;;
72404;SDS011;60395;52.020;113.548;2023-04-24T01:45:35;5.10;;;1.85;;
72404;SDS011;60395;52.020;113.548;2023-04-24T01:48:39;2.13;;;1.70;;
72404;SDS011;60395;52.020;113.548;2023-04-24T01:51:42;8.23;;;2.00;;
72404;SDS011;60395;52.020;113.548;2023-04-24T01:54:46;5.68;;;2.08;;
72404;SDS011;60395;52.020;113.548;2023-04-24T01:57:52;5.47;;;2.08;;
72404;SDS011;60395;52.020;113.548;2023-04-24T02:00:58;3.03;;;1.63;;
72404;SDS011;60395;52.020;113.548;2023-04-24T02:04:04;8.82;;;1.80;;
72404;SDS011;60395;52.020;113.548;2023-04-24T02:07:09;4.70;;;2.30;;
72404;SDS011;60395;52.020;113.548;2023-04-24T02:10:13;3.63;;;1.45;;
72404;SDS011;60395;52.020;113.548;2023-04-24T02:13:16;9.23;;;3.20;;
72404;SDS011;60395;52.020;113.548;2023-04-24T02:16:20;2.67;;;1.67;;
72404;SDS011;60395;52.020;113.548;2023-04-24T02:19:24;4.25;;;2.17;;
72404;SDS011;60395;52.020;113.548;2023-04-24T02:22:27;5.20;;;1.75;;
72404;SDS011;60395;52.020;113.548;2023-04-24T02:25:30;3.13;;;1.70;;
72404;SDS011;60395;52.020;113.548;2023-04-24T02:28:34;3.15;;;1.50;;
72404;SDS011;60395;52.020;113.548;2023-04-24T02:31:37;2.25;;;1.38;;
72404;SDS011;60395;52.020;113.548;2023-04-24T02:34:40;2.78;;;1.52;;
72404;SDS011;60395;52.020;113.548;2023-04-24T02:37:44;3.58;;;1.63;;
72404;SDS011;60395;52.020;113.548;2023-04-24T02:40:49;3.78;;;1.13;;
72404;SDS011;60395;52.020;113.548;2023-04-24T02:43:52;1.95;;;1.27;;
72404;SDS011;60395;52.020;113.548;2023-04-24T02:46:56;7.50;;;2.17;;
72404;SDS011;60395;52.020;113.548;2023-04-24T02:49:59;4.25;;;1.77;;
72404;SDS011;60395;52.020;113.548;2023-04-24T02:53:02;3.10;;;1.83;;
72404;SDS011;60395;52.020;113.548;2023-04-24T02:56:06;8.65;;;1.67;;
72404;SDS011;60395;52.020;113.548;2023-04-24T02:59:09;9.63;;;1.75;;
72404;SDS011;60395;52.020;113.548;2023-04-24T03:02:13;2.60;;;1.55;;
72404;SDS011;60395;52.020;113.548;2023-04-24T03:05:16;5.22;;;1.90;;
72404;SDS011;60395;52.020;113.548;2023-04-24T03:08:20;4.22;;;1.17;;
72404;SDS011;60395;52.020;113.548;2023-04-24T03:11:24;4.10;;;1.50;;
72404;SDS011;60395;52.020;113.548;2023-04-24T03:14:27;7.65;;;1.67;;
72404;SDS011;60395;52.020;113.548;2023-04-24T03:17:33;3.58;;;1.50;;
72404;SDS011;60395;52.020;113.548;2023-04-24T03:20:37;4.32;;;1.20;;
72404;SDS011;60395;52.020;113.548;2023-04-24T03:23:43;1.98;;;1.40;;
72404;SDS011;60395;52.020;113.548;2023-04-24T03:26:46;7.68;;;1.90;;
72404;SDS011;60395;52.020;113.548;2023-04-24T03:30:09;4.75;;;1.30;;
72404;SDS011;60395;52.020;113.548;2023-04-24T03:33:18;2.80;;;1.40;;
72404;SDS011;60395;52.020;113.548;2023-04-24T03:36:33;2.05;;;1.35;;
72404;SDS011;60395;52.020;113.548;2023-04-24T03:39:38;2.10;;;1.10;;
72404;SDS011;60395;52.020;113.548;2023-04-24T03:42:43;2.88;;;1.25;;
72404;SDS011;60395;52.020;113.548;2023-04-24T03:45:46;3.20;;;1.40;;
72404;SDS011;60395;52.020;113.548;2023-04-24T03:48:51;7.65;;;2.10;;
72404;SDS011;60395;52.020;113.548;2023-04-24T03:51:57;4.45;;;1.60;;
72404;SDS011;60395;52.020;113.548;2023-04-24T03:55:02;9.25;;;1.75;;
72404;SDS011;60395;52.020;113.548;2023-04-24T03:58:10;3.08;;;1.15;;
72404;SDS011;60395;52.020;113.548;2023-04-24T04:01:14;2.63;;;1.83;;
72404;SDS011;60395;52.020;113.548;2023-04-24T04:04:23;1.92;;;1.63;;
72404;SDS011;60395;52.020;113.548;2023-04-24T04:07:27;4.10;;;1.70;;
72404;SDS011;60395;52.020;113.548;2023-04-24T04:10:32;5.72;;;1.55;;
72404;SDS011;60395;52.020;113.548;2023-04-24T04:13:38;16.77;;;2.05;;
72404;SDS011;60395;52.020;113.548;2023-04-24T04:16:42;9.32;;;1.45;;
72404;SDS011;60395;52.020;113.548;2023-04-24T04:19:46;4.15;;;1.80;;
72404;SDS011;60395;52.020;113.548;2023-04-24T04:22:50;5.63;;;1.77;;
72404;SDS011;60395;52.020;113.548;2023-04-24T04:26:01;1.70;;;1.23;;
72404;SDS011;60395;52.020;113.548;2023-04-24T04:29:21;1.05;;;0.80;;
72404;SDS011;60395;52.020;113.548;2023-04-24T04:32:28;1.50;;;0.98;;
72404;SDS011;60395;52.020;113.548;2023-04-24T04:35:32;3.65;;;1.80;;
72404;SDS011;60395;52.020;113.548;2023-04-24T04:38:35;4.65;;;1.40;;
72404;SDS011;60395;52.020;113.548;2023-04-24T04:41:48;3.17;;;1.60;;
72404;SDS011;60395;52.020;113.548;2023-04-24T04:44:54;2.55;;;1.40;;
72404;SDS011;60395;52.020;113.548;2023-04-24T04:51:16;3.47;;;1.30;;
72404;SDS011;60395;52.020;113.548;2023-04-24T04:54:19;6.07;;;1.58;;
72404;SDS011;60395;52.020;113.548;2023-04-24T04:57:23;5.90;;;1.75;;
72404;SDS011;60395;52.020;113.548;2023-04-24T05:03:42;2.28;;;1.08;;
72404;SDS011;60395;52.020;113.548;2023-04-24T05:06:48;12.18;;;1.70;;
72404;SDS011;60395;52.020;113.548;2023-04-24T05:09:58;24.52;;;1.75;;
72404;SDS011;60395;52.020;113.548;2023-04-24T05:13:03;5.68;;;1.00;;
72404;SDS011;60395;52.020;113.548;2023-04-24T05:16:07;3.42;;;0.93;;
72404;SDS011;60395;52.020;113.548;2023-04-24T05:19:11;3.30;;;1.38;;
72404;SDS011;60395;52.020;113.548;2023-04-24T05:22:16;5.13;;;1.85;;
72404;SDS011;60395;52.020;113.548;2023-04-24T05:25:25;5.25;;;1.63;;
72404;SDS011;60395;52.020;113.548;2023-04-24T05:28:34;5.95;;;1.35;;
72404;SDS011;60395;52.020;113.548;2023-04-24T05:31:43;3.80;;;1.38;;
72404;SDS011;60395;52.020;113.548;2023-04-24T05:34:46;2.65;;;1.38;;
72404;SDS011;60395;52.020;113.548;2023-04-24T05:37:49;4.03;;;1.33;;
72404;SDS011;60395;52.020;113.548;2023-04-24T05:40:53;4.18;;;1.10;;
72404;SDS011;60395;52.020;113.548;2023-04-24T05:43:57;3.00;;;1.42;;
72404;SDS011;60395;52.020;113.548;2023-04-24T05:47:00;7.30;;;1.92;;
72404;SDS011;60395;52.020;113.548;2023-04-24T05:50:04;2.97;;;1.85;;
72404;SDS011;60395;52.020;113.548;2023-04-24T05:53:08;10.77;;;1.33;;
72404;SDS011;60395;52.020;113.548;2023-04-24T05:56:13;7.80;;;1.42;;
72404;SDS011;60395;52.020;113.548;2023-04-24T05:59:16;1.92;;;1.15;;
72404;SDS011;60395;52.020;113.548;2023-04-24T06:02:20;6.00;;;1.55;;
72404;SDS011;60395;52.020;113.548;2023-04-24T06:05:24;7.33;;;1.70;;
72404;SDS011;60395;52.020;113.548;2023-04-24T06:08:28;3.83;;;1.50;;
72404;SDS011;60395;52.020;113.548;2023-04-24T06:11:31;4.70;;;1.45;;
72404;SDS011;60395;52.020;113.548;2023-04-24T06:14:34;5.00;;;1.05;;
72404;SDS011;60395;52.020;113.548;2023-04-24T06:17:52;1.83;;;1.25;;
72404;SDS011;60395;52.020;113.548;2023-04-24T06:20:55;5.38;;;1.50;;
72404;SDS011;60395;52.020;113.548;2023-04-24T06:23:59;3.53;;;1.35;;
72404;SDS011;60395;52.020;113.548;2023-04-24T06:27:02;4.97;;;1.40;;
72404;SDS011;60395;52.020;113.548;2023-04-24T06:30:05;4.05;;;1.52;;
72404;SDS011;60395;52.020;113.548;2023-04-24T06:33:09;11.93;;;1.95;;
72404;SDS011;60395;52.020;113.548;2023-04-24T06:36:21;2.25;;;1.08;;
72404;SDS011;60395;52.020;113.548;2023-04-24T06:39:24;1.73;;;1.13;;
72404;SDS011;60395;52.020;113.548;2023-04-24T06:42:27;10.63;;;2.38;;
72404;SDS011;60395;52.020;113.548;2023-04-24T06:45:31;4.82;;;1.52;;
72404;SDS011;60395;52.020;113.548;2023-04-24T06:48:34;1.88;;;1.38;;
72404;SDS011;60395;52.020;113.548;2023-04-24T06:51:37;1.60;;;0.98;;
72404;SDS011;60395;52.020;113.548;2023-04-24T06:54:41;3.08;;;1.00;;
72404;SDS011;60395;52.020;113.548;2023-04-24T06:57:44;5.43;;;1.10;;
72404;SDS011;60395;52.020;113.548;2023-04-24T07:00:47;3.38;;;1.10;;
72404;SDS011;60395;52.020;113.548;2023-04-24T07:03:50;4.90;;;1.58;;
72404;SDS011;60395;52.020;113.548;2023-04-24T07:06:55;13.03;;;2.13;;
72404;SDS011;60395;52.020;113.548;2023-04-24T07:09:58;2.47;;;1.10;;
72404;SDS011;60395;52.020;113.548;2023-04-24T07:13:01;7.93;;;1.33;;
72404;SDS011;60395;52.020;113.548;2023-04-24T07:16:04;3.75;;;1.60;;
72404;SDS011;60395;52.020;113.548;2023-04-24T07:19:08;4.93;;;1.70;;
72404;SDS011;60395;52.020;113.548;2023-04-24T07:22:12;6.07;;;1.65;;
72404;SDS011;60395;52.020;113.548;2023-04-24T07:25:19;1.75;;;1.10;;
72404;SDS011;60395;52.020;113.548;2023-04-24T07:28:22;3.63;;;2.08;;
72404;SDS011;60395;52.020;113.548;2023-04-24T07:31:25;4.28;;;1.80;;
72404;SDS011;60395;52.020;113.548;2023-04-24T07:34:29;4.32;;;1.50;;
72404;SDS011;60395;52.020;113.548;2023-04-24T07:37:32;2.33;;;1.40;;
72404;SDS011;60395;52.020;113.548;2023-04-24T07:40:35;8.27;;;1.60;;
72404;SDS011;60395;52.020;113.548;2023-04-24T07:43:38;4.78;;;2.33;;
72404;SDS011;60395;52.020;113.548;2023-04-24T07:46:42;3.13;;;1.25;;
72404;SDS011;60395;52.020;113.548;2023-04-24T07:49:45;6.63;;;1.67;;
72404;SDS011;60395;52.020;113.548;2023-04-24T07:52:49;3.40;;;1.00;;
72404;SDS011;60395;52.020;113.548;2023-04-24T07:55:53;4.00;;;1.58;;
72404;SDS011;60395;52.020;113.548;2023-04-24T07:58:58;5.15;;;1.17;;
72404;SDS011;60395;52.020;113.548;2023-04-24T08:02:02;6.17;;;1.00;;
72404;SDS011;60395;52.020;113.548;2023-04-24T08:05:05;2.33;;;1.30;;
72404;SDS011;60395;52.020;113.548;2023-04-24T08:08:09;1.48;;;1.00;;
72404;SDS011;60395;52.020;113.548;2023-04-24T08:11:12;2.47;;;1.13;;
72404;SDS011;60395;52.020;113.548;2023-04-24T08:14:15;2.28;;;1.40;;
72404;SDS011;60395;52.020;113.548;2023-04-24T08:17:19;1.17;;;0.77;;
72404;SDS011;60395;52.020;113.548;2023-04-24T08:20:22;2.78;;;0.98;;
72404;SDS011;60395;52.020;113.548;2023-04-24T08:23:25;1.92;;;1.30;;
72404;SDS011;60395;52.020;113.548;2023-04-24T08:26:28;2.00;;;1.40;;
72404;SDS011;60395;52.020;113.548;2023-04-24T08:29:32;1.50;;;1.15;;
72404;SDS011;60395;52.020;113.548;2023-04-24T08:32:36;12.13;;;1.73;;
72404;SDS011;60395;52.020;113.548;2023-04-24T08:35:39;2.50;;;1.40;;
72404;SDS011;60395;52.020;113.548;2023-04-24T08:38:43;7.22;;;1.63;;
72404;SDS011;60395;52.020;113.548;2023-04-24T08:41:46;2.35;;;1.38;;
72404;SDS011;60395;52.020;113.548;2023-04-24T08:44:51;4.47;;;1.42;;
72404;SDS011;60395;52.020;113.548;2023-04-24T08:47:55;11.27;;;1.98;;
72404;SDS011;60395;52.020;113.548;2023-04-24T08:51:00;11.63;;;1.63;;
72404;SDS011;60395;52.020;113.548;2023-04-24T08:54:08;7.82;;;1.40;;
72404;SDS011;60395;52.020;113.548;2023-04-24T08:57:11;2.60;;;1.20;;
72404;SDS011;60395;52.020;113.548;2023-04-24T09:00:18;3.95;;;1.17;;
72404;SDS011;60395;52.020;113.548;2023-04-24T09:03:22;4.38;;;1.13;;
72404;SDS011;60395;52.020;113.548;2023-04-24T09:06:27;2.65;;;1.30;;
72404;SDS011;60395;52.020;113.548;2023-04-24T09:09:30;3.50;;;2.00;;
72404;SDS011;60395;52.020;113.548;2023-04-24T09:12:36;16.88;;;2.47;;
72404;SDS011;60395;52.020;113.548;2023-04-24T09:15:39;2.42;;;1.40;;
72404;SDS011;60395;52.020;113.548;2023-04-24T09:18:43;2.10;;;1.10;;
72404;SDS011;60395;52.020;113.548;2023-04-24T09:21:46;6.55;;;1.50;;
72404;SDS011;60395;52.020;113.548;2023-04-24T09:24:59;8.32;;;2.15;;
72404;SDS011;60395;52.020;113.548;2023-04-24T09:28:06;4.05;;;1.35;;
72404;SDS011;60395;52.020;113.548;2023-04-24T09:31:17;4.18;;;1.17;;
72404;SDS011;60395;52.020;113.548;2023-04-24T09:34:24;4.93;;;1.60;;
72404;SDS011;60395;52.020;113.548;2023-04-24T09:37:28;3.25;;;1.50;;
72404;SDS011;60395;52.020;113.548;2023-04-24T09:40:33;2.20;;;1.43;;
72404;SDS011;60395;52.020;113.548;2023-04-24T09:43:38;4.40;;;1.42;;
72404;SDS011;60395;52.020;113.548;2023-04-24T09:46:43;10.40;;;2.45;;
72404;SDS011;60395;52.020;113.548;2023-04-24T09:49:47;5.05;;;1.55;;
72404;SDS011;60395;52.020;113.548;2023-04-24T09:52:58;2.42;;;1.40;;
72404;SDS011;60395;52.020;113.548;2023-04-24T09:56:10;8.13;;;1.40;;
72404;SDS011;60395;52.020;113.548;2023-04-24T09:59:18;4.30;;;1.60;;
72404;SDS011;60395;52.020;113.548;2023-04-24T10:02:22;4.15;;;1.25;;
72404;SDS011;60395;52.020;113.548;2023-04-24T10:05:29;7.60;;;1.73;;
72404;SDS011;60395;52.020;113.548;2023-04-24T10:08:34;12.88;;;2.95;;
72404;SDS011;60395;52.020;113.548;2023-04-24T10:11:40;2.53;;;1.10;;
72404;SDS011;60395;52.020;113.548;2023-04-24T10:14:46;3.08;;;1.55;;
72404;SDS011;60395;52.020;113.548;2023-04-24T10:17:50;2.42;;;1.27;;
72404;SDS011;60395;52.020;113.548;2023-04-24T10:20:57;2.60;;;1.30;;
72404;SDS011;60395;52.020;113.548;2023-04-24T10:24:02;2.65;;;1.23;;
72404;SDS011;60395;52.020;113.548;2023-04-24T10:27:09;3.75;;;1.50;;
72404;SDS011;60395;52.020;113.548;2023-04-24T10:30:13;1.92;;;1.30;;
72404;SDS011;60395;52.020;113.548;2023-04-24T10:33:17;2.27;;;1.27;;
72404;SDS011;60395;52.020;113.548;2023-04-24T10:36:21;6.70;;;1.60;;
72404;SDS011;60395;52.020;113.548;2023-04-24T10:39:26;3.00;;;1.77;;
72404;SDS011;60395;52.020;113.548;2023-04-24T10:42:29;4.63;;;1.88;;
72404;SDS011;60395;52.020;113.548;2023-04-24T10:45:33;5.70;;;1.83;;
72404;SDS011;60395;52.020;113.548;2023-04-24T10:48:41;9.15;;;1.52;;
72404;SDS011;60395;52.020;113.548;2023-04-24T10:51:50;2.42;;;1.63;;
72404;SDS011;60395;52.020;113.548;2023-04-24T10:54:55;1.80;;;1.40;;
72404;SDS011;60395;52.020;113.548;2023-04-24T10:58:04;2.22;;;1.30;;
72404;SDS011;60395;52.020;113.548;2023-04-24T11:01:08;2.33;;;1.40;;
72404;SDS011;60395;52.020;113.548;2023-04-24T11:04:11;1.73;;;1.10;;
72404;SDS011;60395;52.020;113.548;2023-04-24T11:07:15;1.90;;;1.30;;
72404;SDS011;60395;52.020;113.548;2023-04-24T11:10:25;2.42;;;1.40;;
72404;SDS011;60395;52.020;113.548;2023-04-24T11:17:26;1.92;;;1.20;;
72404;SDS011;60395;52.020;113.548;2023-04-24T11:20:44;2.78;;;1.55;;
72404;SDS011;60395;52.020;113.548;2023-04-24T11:23:47;4.28;;;1.50;;
72404;SDS011;60395;52.020;113.548;2023-04-24T11:26:58;4.03;;;1.60;;
72404;SDS011;60395;52.020;113.548;2023-04-24T11:30:24;3.65;;;1.10;;
72404;SDS011;60395;52.020;113.548;2023-04-24T11:33:33;3.30;;;1.55;;
72404;SDS011;60395;52.020;113.548;2023-04-24T11:36:36;63.00;;;27.55;;
72404;SDS011;60395;52.020;113.548;2023-04-24T11:39:40;5.10;;;1.70;;
72404;SDS011;60395;52.020;113.548;2023-04-24T11:42:44;4.40;;;1.63;;
72404;SDS011;60395;52.020;113.548;2023-04-24T11:45:51;4.10;;;1.40;;
72404;SDS011;60395;52.020;113.548;2023-04-24T11:48:54;8.10;;;1.70;;
72404;SDS011;60395;52.020;113.548;2023-04-24T11:52:01;3.53;;;1.55;;
72404;SDS011;60395;52.020;113.548;2023-04-24T11:55:06;5.20;;;1.90;;
72404;SDS011;60395;52.020;113.548;2023-04-24T11:58:11;5.82;;;2.05;;
72404;SDS011;60395;52.020;113.548;2023-04-24T12:01:15;7.32;;;2.08;;
72404;SDS011;60395;52.020;113.548;2023-04-24T12:04:18;5.03;;;1.88;;
72404;SDS011;60395;52.020;113.548;2023-04-24T12:07:22;4.70;;;2.10;;
72404;SDS011;60395;52.020;113.548;2023-04-24T12:10:28;8.13;;;2.38;;
72404;SDS011;60395;52.020;113.548;2023-04-24T12:13:33;6.35;;;2.63;;
72404;SDS011;60395;52.020;113.548;2023-04-24T12:16:37;4.45;;;1.77;;
72404;SDS011;60395;52.020;113.548;2023-04-24T12:19:45;4.68;;;1.67;;
72404;SDS011;60395;52.020;113.548;2023-04-24T12:22:53;3.30;;;1.60;;
72404;SDS011;60395;52.020;113.548;2023-04-24T12:26:07;6.35;;;1.50;;
72404;SDS011;60395;52.020;113.548;2023-04-24T12:29:11;2.30;;;1.45;;
72404;SDS011;60395;52.020;113.548;2023-04-24T12:32:23;4.07;;;1.30;;
72404;SDS011;60395;52.020;113.548;2023-04-24T12:35:29;3.85;;;2.00;;
72404;SDS011;60395;52.020;113.548;2023-04-24T12:38:36;4.75;;;2.13;;
72404;SDS011;60395;52.020;113.548;2023-04-24T12:41:55;2.88;;;2.00;;
72404;SDS011;60395;52.020;113.548;2023-04-24T12:45:04;5.55;;;2.67;;
72404;SDS011;60395;52.020;113.548;2023-04-24T12:48:08;3.50;;;1.90;;
72404;SDS011;60395;52.020;113.548;2023-04-24T12:51:12;3.55;;;1.73;;
72404;SDS011;60395;52.020;113.548;2023-04-24T12:54:15;3.65;;;1.80;;
72404;SDS011;60395;52.020;113.548;2023-04-24T12:57:19;3.83;;;1.92;;
72404;SDS011;60395;52.020;113.548;2023-04-24T13:00:22;4.30;;;1.90;;
72404;SDS011;60395;52.020;113.548;2023-04-24T13:03:26;5.07;;;1.50;;
72404;SDS011;60395;52.020;113.548;2023-04-24T13:06:31;3.22;;;1.55;;
72404;SDS011;60395;52.020;113.548;2023-04-24T13:09:35;3.97;;;1.40;;
72404;SDS011;60395;52.020;113.548;2023-04-24T13:12:39;3.53;;;1.70;;
72404;SDS011;60395;52.020;113.548;2023-04-24T13:15:43;7.40;;;1.88;;
72404;SDS011;60395;52.020;113.548;2023-04-24T13:18:47;2.40;;;1.50;;
72404;SDS011;60395;52.020;113.548;2023-04-24T13:21:51;3.65;;;1.50;;
72404;SDS011;60395;52.020;113.548;2023-04-24T13:24:54;5.07;;;1.40;;
72404;SDS011;60395;52.020;113.548;2023-04-24T13:27:58;7.03;;;2.10;;
72404;SDS011;60395;52.020;113.548;2023-04-24T13:31:02;5.20;;;2.57;;
72404;SDS011;60395;52.020;113.548;2023-04-24T13:34:06;2.57;;;1.60;;
72404;SDS011;60395;52.020;113.548;2023-04-24T13:37:10;3.55;;;1.95;;
72404;SDS011;60395;52.020;113.548;2023-04-24T13:40:13;4.35;;;1.42;;
72404;SDS011;60395;52.020;113.548;2023-04-24T13:43:16;6.43;;;1.90;;
72404;SDS011;60395;52.020;113.548;2023-04-24T13:46:19;4.55;;;1.58;;
72404;SDS011;60395;52.020;113.548;2023-04-24T13:49:26;3.45;;;1.55;;
72404;SDS011;60395;52.020;113.548;2023-04-24T13:52:30;3.43;;;1.77;;
72404;SDS011;60395;52.020;113.548;2023-04-24T13:55:33;25.85;;;11.40;;
72404;SDS011;60395;52.020;113.548;2023-04-24T13:58:37;2.63;;;1.63;;
72404;SDS011;60395;52.020;113.548;2023-04-24T14:01:41;8.88;;;2.50;;
72404;SDS011;60395;52.020;113.548;2023-04-24T14:08:14;7.85;;;2.33;;
72404;SDS011;60395;52.020;113.548;2023-04-24T14:11:18;5.45;;;2.35;;
72404;SDS011;60395;52.020;113.548;2023-04-24T14:14:39;4.88;;;1.95;;
72404;SDS011;60395;52.020;113.548;2023-04-24T14:17:50;4.10;;;2.00;;
72404;SDS011;60395;52.020;113.548;2023-04-24T14:20:58;3.95;;;2.22;;
72404;SDS011;60395;52.020;113.548;2023-04-24T14:24:05;10.30;;;4.47;;
72404;SDS011;60395;52.020;113.548;2023-04-24T14:27:16;8.30;;;3.60;;
72404;SDS011;60395;52.020;113.548;2023-04-24T14:30:21;6.88;;;3.30;;
72404;SDS011;60395;52.020;113.548;2023-04-24T14:33:24;12.32;;;5.00;;
72404;SDS011;60395;52.020;113.548;2023-04-24T14:36:30;15.98;;;5.20;;
72404;SDS011;60395;52.020;113.548;2023-04-24T14:43:10;5.82;;;2.70;;
72404;SDS011;60395;52.020;113.548;2023-04-24T14:46:23;17.00;;;4.90;;
72404;SDS011;60395;52.020;113.548;2023-04-24T14:49:39;16.48;;;4.82;;
72404;SDS011;60395;52.020;113.548;2023-04-24T14:52:49;6.75;;;3.10;;
72404;SDS011;60395;52.020;113.548;2023-04-24T14:56:00;6.72;;;2.70;;
72404;SDS011;60395;52.020;113.548;2023-04-24T14:59:07;2.47;;;1.50;;
72404;SDS011;60395;52.020;113.548;2023-04-24T15:02:15;2.83;;;1.52;;
72404;SDS011;60395;52.020;113.548;2023-04-24T15:05:21;3.28;;;1.75;;
72404;SDS011;60395;52.020;113.548;2023-04-24T15:08:35;4.03;;;2.00;;
72404;SDS011;60395;52.020;113.548;2023-04-24T15:12:02;5.25;;;2.47;;
72404;SDS011;60395;52.020;113.548;2023-04-24T15:15:29;7.50;;;3.40;;
72404;SDS011;60395;52.020;113.548;2023-04-24T15:18:38;14.02;;;6.05;;
72404;SDS011;60395;52.020;113.548;2023-04-24T15:21:41;12.63;;;5.25;;
72404;SDS011;60395;52.020;113.548;2023-04-24T15:24:46;8.32;;;3.85;;
72404;SDS011;60395;52.020;113.548;2023-04-24T15:27:49;10.60;;;4.25;;
72404;SDS011;60395;52.020;113.548;2023-04-24T15:30:53;12.23;;;5.30;;
72404;SDS011;60395;52.020;113.548;2023-04-24T15:33:56;17.83;;;6.95;;
72404;SDS011;60395;52.020;113.548;2023-04-24T15:36:59;20.45;;;7.22;;
72404;SDS011;60395;52.020;113.548;2023-04-24T15:40:03;13.00;;;4.97;;
72404;SDS011;60395;52.020;113.548;2023-04-24T15:43:09;13.70;;;5.40;;
72404;SDS011;60395;52.020;113.548;2023-04-24T15:46:13;10.63;;;4.50;;
72404;SDS011;60395;52.020;113.548;2023-04-24T15:49:17;5.53;;;2.88;;
72404;SDS011;60395;52.020;113.548;2023-04-24T15:52:21;6.05;;;3.10;;
72404;SDS011;60395;52.020;113.548;2023-04-24T15:55:24;7.78;;;3.70;;
72404;SDS011;60395;52.020;113.548;2023-04-24T15:58:27;16.80;;;6.05;;
72404;SDS011;60395;52.020;113.548;2023-04-24T16:01:31;22.55;;;9.07;;
72404;SDS011;60395;52.020;113.548;2023-04-24T16:04:35;10.80;;;3.90;;
72404;SDS011;60395;52.020;113.548;2023-04-24T16:07:39;23.77;;;8.45;;
72404;SDS011;60395;52.020;113.548;2023-04-24T16:10:42;9.80;;;4.18;;
72404;SDS011;60395;52.020;113.548;2023-04-24T16:13:48;13.35;;;5.45;;
72404;SDS011;60395;52.020;113.548;2023-04-24T16:16:51;10.27;;;4.22;;
72404;SDS011;60395;52.020;113.548;2023-04-24T16:19:56;7.55;;;3.30;;
72404;SDS011;60395;52.020;113.548;2023-04-24T16:23:00;10.32;;;4.22;;
72404;SDS011;60395;52.020;113.548;2023-04-24T16:26:03;3.92;;;2.10;;
72404;SDS011;60395;52.020;113.548;2023-04-24T16:29:06;3.50;;;2.10;;
72404;SDS011;60395;52.020;113.548;2023-04-24T16:32:10;7.00;;;2.90;;
72404;SDS011;60395;52.020;113.548;2023-04-24T16:35:13;11.27;;;4.88;;
72404;SDS011;60395;52.020;113.548;2023-04-24T16:38:16;12.70;;;5.60;;
72404;SDS011;60395;52.020;113.548;2023-04-24T16:41:19;13.98;;;6.32;;
72404;SDS011;60395;52.020;113.548;2023-04-24T16:44:23;24.67;;;9.07;;
72404;SDS011;60395;52.020;113.548;2023-04-24T16:47:27;23.02;;;9.00;;
72404;SDS011;60395;52.020;113.548;2023-04-24T16:50:31;33.23;;;11.50;;
72404;SDS011;60395;52.020;113.548;2023-04-24T16:53:34;33.10;;;11.68;;
72404;SDS011;60395;52.020;113.548;2023-04-24T16:56:37;27.70;;;10.38;;
72404;SDS011;60395;52.020;113.548;2023-04-24T16:59:41;39.33;;;14.27;;
72404;SDS011;60395;52.020;113.548;2023-04-24T17:02:44;42.60;;;14.85;;
72404;SDS011;60395;52.020;113.548;2023-04-24T17:05:50;30.55;;;11.23;;
72404;SDS011;60395;52.020;113.548;2023-04-24T17:08:53;33.50;;;12.48;;
72404;SDS011;60395;52.020;113.548;2023-04-24T17:11:57;37.08;;;12.90;;
72404;SDS011;60395;52.020;113.548;2023-04-24T17:15:00;55.05;;;19.58;;
72404;SDS011;60395;52.020;113.548;2023-04-24T17:18:03;37.58;;;15.32;;
72404;SDS011;60395;52.020;113.548;2023-04-24T17:21:07;39.72;;;13.50;;
72404;SDS011;60395;52.020;113.548;2023-04-24T17:24:10;47.30;;;16.42;;
72404;SDS011;60395;52.020;113.548;2023-04-24T17:27:14;31.17;;;12.02;;
72404;SDS011;60395;52.020;113.548;2023-04-24T17:30:17;25.83;;;9.68;;
72404;SDS011;60395;52.020;113.548;2023-04-24T17:33:20;19.50;;;8.68;;
72404;SDS011;60395;52.020;113.548;2023-04-24T17:36:23;29.33;;;10.75;;
72404;SDS011;60395;52.020;113.548;2023-04-24T17:39:27;27.27;;;10.95;;
72404;SDS011;60395;52.020;113.548;2023-04-24T17:42:30;47.17;;;12.43;;
72404;SDS011;60395;52.020;113.548;2023-04-24T17:45:33;32.33;;;11.77;;
72404;SDS011;60395;52.020;113.548;2023-04-24T17:51:41;28.05;;;11.07;;
72404;SDS011;60395;52.020;113.548;2023-04-24T17:54:44;32.92;;;10.82;;
72404;SDS011;60395;52.020;113.548;2023-04-24T17:57:47;25.80;;;8.73;;
72404;SDS011;60395;52.020;113.548;2023-04-24T18:00:51;24.67;;;8.60;;
72404;SDS011;60395;52.020;113.548;2023-04-24T18:03:54;23.05;;;8.32;;
72404;SDS011;60395;52.020;113.548;2023-04-24T18:06:58;35.65;;;8.27;;
72404;SDS011;60395;52.020;113.548;2023-04-24T18:10:01;16.08;;;5.90;;
72404;SDS011;60395;52.020;113.548;2023-04-24T18:13:05;25.37;;;7.37;;
72404;SDS011;60395;52.020;113.548;2023-04-24T18:16:08;17.35;;;6.40;;
72404;SDS011;60395;52.020;113.548;2023-04-24T18:19:11;16.90;;;5.80;;